• Join FlightAware (Why Join?)
  • Login
  • US Flag 
05:10PM EDT


 

Airport Tracker/Info


-or-


 

Live Flight TrackerFlight Track Log ✈ EJA951 ✈ 03-Nov-2013 ✈ KSUA - KMCO

Flight Track Log - Related Links

Times and Time Zones

All times are in EST time to prevent confusion due to time zone crossing. See the EJA951 flight status page for this flight to view local times or setup timezone preferences in your user account.

Time Position Orientation Groundspeed Altitude Reporting Facility
EST Latitude Longitude Course Direction KTS MPH feet Rate Location/Type
11:33AM 27.2614 -80.3919 307° West 262 302 8,100  Level Miami Center
11:34AM 27.3164 -80.4497 317° Northwest 262 302 9,000 420 Climbing Miami Center
11:35AM 27.3692 -80.5075 316° Northwest 268 308 9,000  Level Miami Center
11:36AM 27.4181 -80.5581 317° Northwest 262 302 9,000  Level Miami Center
11:37AM 27.4731 -80.6161 317° Northwest 269 310 9,000  Level Miami Center
11:38AM 27.5339 -80.6789 318° Northwest 269 310 9,000  Level Miami Center
11:39AM 27.5886 -80.7392 316° Northwest 269 310 9,000  Level Miami Center
11:40AM 27.6456 -80.7950 319° Northwest 269 310 9,000  Level Miami Center
11:42AM 27.7500 -80.9000 318° Northwest 276 318 9,100  Climbing Orlando TRACON
11:43AM 27.8000 -80.9500 319° Northwest 276 318 9,100  Level Orlando TRACON
11:44AM 27.8500 -81.0167 310° West 276 318 9,100 -420 Level Orlando TRACON
11:45AM 27.9167 -81.0667 326° Northwest 267 307 8,300 -540 Descending Orlando TRACON
11:47AM 28.0358 -81.1326 339° North  Level FlightAware Approximate
11:51AM 28.1833 -81.3167 199° South 161 185 5,400  Level Orlando TRACON
11:52AM 28.2333 -81.3167 360° North 169 194 4,000 -1,200 Descending Orlando TRACON
11:53AM 28.2667 -81.3167 360° North 170 196 3,100 -960 Descending Orlando TRACON
11:54AM 28.4294 -81.3090 North  Level Estimated
11:54AM 28.3167 -81.3167 360° North 164 189 2,100  Level Orlando TRACON
11:55AM 28.4294 -81.3090 North  Level Estimated
11:55AM 28.3667 -81.3333 344° North 161 185 1,400  Level Orlando TRACON
11:56AM 28.4294 -81.3090 196° South  Level Estimated
11:56AM 28.4000 -81.3333 360° North 129 148 500  Level Orlando TRACON
11:57AM 28.4294 -81.3090 204° Southwest  Level Estimated
11:58AM 28.4294 -81.3090 204° Southwest  Level Estimated
11:59AM 28.4294 -81.3090 199° South  Level Estimated
12:00PM 28.4294 -81.3090 199° South  Level Estimated
12:01PM 28.4294 -81.3090 199° South  Level Estimated